Barranca, New Mexico
Current Conditions -  °F | °C
As of 7:55 PM on Friday 21 Nov 2014 (Local Time) from KLAM Reporting Station
Clear Clear  
Wind Chill: 41°   Ceiling: Unl
Heat Index: 41°   Visibility: 10mi
Dew Point: 20°   Wind: 0mph
Humidity: 43%   Direction: NA
Pressure: 30.1"   Gusts: NA
Location:  36.1557°N, 106.238°W
Report Text: KLAM 220255Z AUTO 00000KT 10SM CLR 05/M07 A3010 RMK AO2 T00501067
Loading
Personal Weather Stations






























Interactive Weather Map New forecast layout! Learn more

10-Day Weather Forecast

Advertisements
Track Severe Weather on mobile